Omaha, NE

8:35 AM CDT on October 21, 2019 (GMT -0500)
Deer Park | | Change Station
Active Advisory: Flood Advisory Active Notice: Flood Advisory

Elev 1083 ft 41.23 °N, 95.93 °W | Updated 21 seconds ago

Mostly Cloudy
Mostly Cloudy
43.7 °F
Feels Like 42 °F
N
3.7
Wind Variable Wind from SW
Gusts 0.0 mph

Today
High -- | Low -- °F
--% Chance of Precip.
Yesterday
High -- | Low -- °F
Precip. -- in
Pressure 29.36 in
Visibility 10.0 miles
Clouds Few 1500 ft
Few 2000 ft
Windchill 42 °F
Dew Point 40 °F
Humidity 87%
Rainfall 0.01 in
Snow Depth Not available.
7:41 AM 6:34 PM
Waning Gibbous, 49% visible
METAR KOMA 211252Z 24013KT 10SM FEW015 FEW020 06/03 A2936 RMK AO2 SLP941 T00610033
Pressure 29.36 in
Visibility 10.0 miles
Clouds Few 1500 ft
Few 2000 ft
Windchill 42 °F
Dew Point 40 °F
Humidity 87%
Rainfall 0.01 in
Snow Depth Not available.
7:41 AM 6:34 PM
Waning Gibbous, 49% visible
METAR KOMA 211252Z 24013KT 10SM FEW015 FEW020 06/03 A2936 RMK AO2 SLP941 T00610033

Get Your Daily Forecast Email!

Thanks for signing up!

Be on the lookout for a verification email in your inbox.

You'll start receiving severe weather alerts in your inbox..

×

10-Day Weather Forecast

Almanac

Astronomy

Oct. 21, 2019 Rise Set
Actual Time
Civil Twilight
Nautical Twilight
Astronomical Twilight
Moon
Length of Visible Light
Length of Day
Tomorrow will be .
, % of the Moon is Illuminated

Today's Extremes

State Highs State Lows

Community

WunderPhotos

Category 6

Welcome to Category 6. This is the collective home for Weather Underground's featured writeups by Dr. Jeff Masters (right), Bob Henson (left), Chris Burt, and other regular contributors.

Nearby

Air Quality

  Air Quality AQ Index Pollutant
Not available.

Snow Depth

Station Depth Elevation

Earthquake Activity

City Distance Mag. Time & Date
Minimum magnitude displayed is 2.5.

Coastal Water Temperatures

Place Temperature

Stations

Nearby Weather Stations

Station Location Temp. Windchill Dew Point Humidity Wind Precip. Elev Updated Type
                   

Watches & Warnings

Flood Advisory
Issued: 9:28 PM CDT Oct. 20, 2019 – National Weather Service

The flood advisory continues for
the Missouri River at Omaha.
* Until further notice.
* At 9:15 PM Sunday the stage was 26.1 feet.
* Flood stage is 29.0 feet.
* Forecast... river levels should fall very slowly the next 7 days.


Lat... Lon 4142 9602 4142 9583 4107 9574 4106 9591
      4132 9595



Bcm